createdAt,value
2023-02-15T00:00:12.388Z,49.60
2023-02-15T00:05:38.071Z,47.50
2023-02-15T00:10:43.578Z,55.70
2023-02-15T00:15:49.260Z,53.90
2023-02-15T00:20:54.795Z,49.30
2023-02-15T00:26:09.109Z,43.80
2023-02-15T00:31:15.102Z,51.70
2023-02-15T00:36:20.950Z,52.80
2023-02-15T00:41:28.117Z,48.60
2023-02-15T00:46:34.171Z,45.90
2023-02-15T00:51:40.646Z,48.10
2023-02-15T00:56:46.323Z,53.50
2023-02-15T01:01:58.756Z,47.50
2023-02-15T01:07:07.656Z,44.60
2023-02-15T01:12:13.256Z,47.50
2023-02-15T01:17:18.921Z,52.40
2023-02-15T01:22:24.511Z,47.20
2023-02-15T01:27:31.874Z,44.60
2023-02-15T01:32:37.793Z,47.80
2023-02-15T01:37:43.515Z,49.30
2023-02-15T01:42:53.355Z,46.20
2023-02-15T01:48:04.608Z,47.40
2023-02-15T01:53:14.832Z,49.90
2023-02-15T01:58:22.467Z,53.50
2023-02-15T02:03:39.860Z,54.70
2023-02-15T02:08:45.918Z,44.70
2023-02-15T02:13:52.716Z,47.00
2023-02-15T02:19:41.543Z,50.60
2023-02-15T02:25:18.968Z,47.00
2023-02-15T02:30:58.067Z,43.80
2023-02-15T02:36:15.365Z,49.90
2023-02-15T02:41:27.368Z,51.60
2023-02-15T02:46:40.684Z,49.20
2023-02-15T02:51:46.298Z,47.20
2023-02-15T02:56:54.786Z,44.00
2023-02-15T03:02:07.173Z,50.30
2023-02-15T03:07:17.120Z,52.30
2023-02-15T03:12:25.491Z,50.40
2023-02-15T03:17:36.526Z,47.00
2023-02-15T03:22:47.932Z,50.60
2023-02-15T03:27:59.869Z,52.70
2023-02-15T03:33:08.253Z,49.80
2023-02-15T03:38:18.771Z,49.60
2023-02-15T03:43:32.390Z,56.00
2023-02-15T03:48:41.778Z,57.10
2023-02-15T03:53:50.216Z,51.90
2023-02-15T03:59:14.521Z,50.70
2023-02-15T04:04:25.503Z,57.70
2023-02-15T04:15:13.558Z,51.90
2023-02-15T04:20:38.368Z,52.60
2023-02-15T04:25:44.082Z,59.40
2023-02-15T04:30:50.614Z,54.70
2023-02-15T04:35:57.310Z,50.70
2023-02-15T04:41:03.037Z,48.80
2023-02-15T04:46:08.646Z,51.90
2023-02-15T04:51:14.413Z,53.80
2023-02-15T04:56:20.715Z,46.10
2023-02-15T05:01:26.602Z,49.20
2023-02-15T05:06:32.573Z,51.90
2023-02-15T05:11:38.324Z,49.00
2023-02-15T05:16:43.942Z,44.30
2023-02-15T05:21:49.713Z,43.30
2023-02-15T05:27:14.113Z,45.40
2023-02-15T05:32:19.776Z,41.90
2023-02-15T05:37:25.618Z,42.70
2023-02-15T05:42:31.751Z,45.20
2023-02-15T05:47:37.290Z,46.10
2023-02-15T05:52:43.240Z,43.40
2023-02-15T05:57:49.478Z,46.00
2023-02-15T06:02:55.097Z,50.00
2023-02-15T06:08:01.055Z,54.20
2023-02-15T06:13:06.991Z,46.60
2023-02-15T06:18:12.755Z,47.80
2023-02-15T06:23:18.622Z,49.20
2023-02-15T06:28:26.522Z,47.40
2023-02-15T06:33:34.782Z,51.80
2023-02-15T06:38:40.730Z,49.30
2023-02-15T06:43:46.575Z,49.50
2023-02-15T06:48:52.138Z,49.20
2023-02-15T06:53:57.871Z,45.10
2023-02-15T06:59:03.928Z,50.60
2023-02-15T07:04:09.588Z,49.90
2023-02-15T07:09:15.169Z,60.40
2023-02-15T07:14:21.283Z,47.30
2023-02-15T07:19:27.265Z,47.60
2023-02-15T07:24:33.039Z,48.40
2023-02-15T07:29:38.531Z,43.60
2023-02-15T07:34:44.581Z,43.00
2023-02-15T07:39:50.228Z,39.70
2023-02-15T07:44:56.098Z,39.70
2023-02-15T07:50:01.666Z,45.60
2023-02-15T07:55:09.733Z,40.20
2023-02-15T08:00:17.841Z,35.10
2023-02-15T08:05:23.350Z,38.60
2023-02-15T08:10:48.104Z,34.00
2023-02-15T08:15:53.775Z,35.50
2023-02-15T08:20:59.365Z,39.20
2023-02-15T08:26:05.651Z,41.00
2023-02-15T08:31:13.262Z,33.30
2023-02-15T08:36:20.846Z,36.60
2023-02-15T08:41:30.370Z,37.10
2023-02-15T08:46:38.187Z,36.50
2023-02-15T08:51:44.611Z,37.30
2023-02-15T08:56:51.061Z,38.20
2023-02-15T09:01:57.191Z,42.80
2023-02-15T09:07:05.555Z,52.60
2023-02-15T09:12:11.071Z,43.80
2023-02-15T09:17:16.963Z,42.10
2023-02-15T09:22:22.500Z,47.40
2023-02-15T09:27:28.132Z,52.30
2023-02-15T09:32:34.032Z,50.20
2023-02-15T09:37:39.806Z,52.60
2023-02-15T09:43:23.976Z,55.40
2023-02-15T09:48:43.746Z,50.30
2023-02-15T09:54:12.266Z,49.30
2023-02-15T09:59:29.373Z,37.40
2023-02-15T10:04:51.905Z,36.80
2023-02-15T10:10:09.160Z,42.00
2023-02-15T10:15:29.535Z,37.20
2023-02-15T10:20:47.141Z,53.20
2023-02-15T10:26:01.044Z,43.50
2023-02-15T10:31:14.503Z,38.40
2023-02-15T10:36:33.852Z,35.10
2023-02-15T10:41:52.029Z,34.10
2023-02-15T10:47:17.174Z,34.90
2023-02-15T10:52:33.513Z,38.30
2023-02-15T10:57:50.267Z,41.80
2023-02-15T11:03:12.667Z,41.90
2023-02-15T11:08:19.808Z,47.30
2023-02-15T11:13:35.157Z,40.40
2023-02-15T11:18:44.948Z,37.00
2023-02-15T11:23:52.345Z,43.20
2023-02-15T11:29:02.667Z,47.80
2023-02-15T11:34:18.049Z,46.80
2023-02-15T11:39:29.589Z,42.70
2023-02-15T11:44:38.386Z,39.70
2023-02-15T11:49:46.339Z,43.00
2023-02-15T11:54:53.661Z,43.90
2023-02-15T12:00:08.636Z,40.60
2023-02-15T12:05:18.375Z,40.70
2023-02-15T12:10:27.039Z,44.00
2023-02-15T12:15:36.226Z,43.60
2023-02-15T12:20:42.366Z,42.60
2023-02-15T12:25:55.471Z,41.30
2023-02-15T12:31:04.240Z,45.30
2023-02-15T12:36:18.515Z,45.30
2023-02-15T12:41:27.061Z,46.00
2023-02-15T12:46:37.958Z,44.70
2023-02-15T12:51:49.456Z,49.40
2023-02-15T12:56:55.327Z,50.50
2023-02-15T13:02:10.811Z,44.50
2023-02-15T13:07:17.148Z,46.90
2023-02-15T13:12:27.863Z,42.00
2023-02-15T13:17:36.038Z,41.40
2023-02-15T13:22:44.336Z,45.70
2023-02-15T13:27:55.878Z,58.80
2023-02-15T13:33:07.010Z,106.40
2023-02-15T13:43:48.366Z,55.00
2023-02-15T13:49:10.589Z,60.60
2023-02-15T13:54:44.283Z,50.50
2023-02-15T14:00:06.425Z,65.00
2023-02-15T14:05:36.871Z,50.20
2023-02-15T14:10:50.378Z,56.70
2023-02-15T14:16:04.164Z,59.40
2023-02-15T14:21:16.454Z,56.00
2023-02-15T14:26:35.294Z,56.70
2023-02-15T14:31:47.060Z,55.30
2023-02-15T14:36:54.694Z,55.10
2023-02-15T14:42:05.793Z,51.70
2023-02-15T14:47:18.699Z,51.30
2023-02-15T14:52:24.436Z,60.40
2023-02-15T14:57:38.900Z,55.20
2023-02-15T15:02:49.662Z,57.60
2023-02-15T15:13:38.973Z,84.90
2023-02-15T15:18:49.099Z,68.20
2023-02-15T15:23:55.600Z,71.30
2023-02-15T15:29:03.328Z,70.20
2023-02-15T15:34:39.902Z,65.50
2023-02-15T15:40:15.582Z,62.20
2023-02-15T15:46:06.233Z,86.80
2023-02-15T15:51:19.404Z,75.40
2023-02-15T15:56:29.116Z,63.40
2023-02-15T16:01:40.619Z,61.00
2023-02-15T16:06:46.441Z,65.50
2023-02-15T16:11:54.311Z,61.30
2023-02-15T16:17:02.893Z,58.50
2023-02-15T16:22:14.750Z,54.00
2023-02-15T16:27:44.745Z,62.30
2023-02-15T16:32:50.501Z,65.30
2023-02-15T16:37:56.134Z,61.30
2023-02-15T16:43:05.891Z,62.90
2023-02-15T16:48:17.740Z,66.00
2023-02-15T16:53:26.578Z,79.90
2023-02-15T16:58:38.385Z,82.40
2023-02-15T17:03:49.066Z,65.50
2023-02-15T17:09:03.569Z,71.40
2023-02-15T17:14:27.687Z,86.10
2023-02-15T17:19:44.039Z,56.80
2023-02-15T17:24:59.158Z,58.30
2023-02-15T17:30:14.513Z,63.60
2023-02-15T17:35:22.645Z,55.60
2023-02-15T17:40:30.606Z,61.60
2023-02-15T17:45:47.488Z,69.50
2023-02-15T17:50:54.041Z,66.00
2023-02-15T17:55:59.877Z,75.20
2023-02-15T18:01:31.192Z,68.80
2023-02-15T18:06:59.041Z,64.10
2023-02-15T18:12:15.618Z,57.50
2023-02-15T18:17:27.464Z,62.20
2023-02-15T18:22:34.094Z,64.80
2023-02-15T18:27:39.864Z,63.10
2023-02-15T18:32:46.566Z,68.90
2023-02-15T18:37:54.090Z,64.30
2023-02-15T18:42:59.726Z,60.10
2023-02-15T18:48:08.362Z,61.70
2023-02-15T18:53:20.504Z,69.30
2023-02-15T18:58:28.114Z,64.90
2023-02-15T19:03:33.834Z,55.70
2023-02-15T19:08:39.923Z,63.30
2023-02-15T19:13:46.189Z,63.40
2023-02-15T19:18:51.911Z,62.30
2023-02-15T19:24:02.073Z,59.00
2023-02-15T19:29:10.373Z,60.00
2023-02-15T19:34:18.007Z,89.40
2023-02-15T19:39:30.212Z,68.60
2023-02-15T19:44:35.929Z,63.20
2023-02-15T19:49:44.056Z,77.70
2023-02-15T19:54:50.646Z,67.90
2023-02-15T19:59:56.373Z,65.50
2023-02-15T20:05:02.503Z,76.00
2023-02-15T20:10:16.889Z,92.30
2023-02-15T20:15:24.786Z,96.40
2023-02-15T20:20:34.681Z,105.30
2023-02-15T20:25:40.438Z,90.20
2023-02-15T20:30:46.196Z,93.90
2023-02-15T20:35:52.746Z,75.60
2023-02-15T20:41:18.949Z,91.80
2023-02-15T20:46:24.616Z,99.00
2023-02-15T20:51:30.348Z,91.60
2023-02-15T20:56:37.581Z,84.80
2023-02-15T21:01:43.349Z,81.40
2023-02-15T21:06:49.166Z,91.90
2023-02-15T21:11:56.698Z,115.90
2023-02-15T21:17:03.161Z,103.80
2023-02-15T21:22:12.065Z,106.20
2023-02-15T21:27:18.567Z,95.60
2023-02-15T21:32:24.511Z,106.90
2023-02-15T21:37:35.485Z,108.80
2023-02-15T21:43:00.016Z,104.90
2023-02-15T21:48:05.817Z,109.10
2023-02-15T21:53:17.684Z,103.70
2023-02-15T21:58:26.229Z,100.70
2023-02-15T22:03:35.645Z,155.50
2023-02-15T22:08:41.885Z,170.80
2023-02-15T22:13:48.624Z,189.10
2023-02-15T22:18:54.196Z,169.60
2023-02-15T22:23:59.924Z,136.90
2023-02-15T22:29:05.897Z,135.30
2023-02-15T22:34:24.733Z,142.90
2023-02-15T22:39:30.267Z,140.90
2023-02-15T22:44:35.977Z,134.00
2023-02-15T22:49:42.808Z,121.10
2023-02-15T22:54:48.597Z,120.90
2023-02-15T22:59:54.238Z,119.40
2023-02-15T23:05:00.029Z,122.70
2023-02-15T23:10:06.769Z,128.40
2023-02-15T23:15:13.054Z,109.30
2023-02-15T23:20:19.129Z,110.80
2023-02-15T23:25:27.897Z,110.80
2023-02-15T23:30:34.105Z,110.40
2023-02-15T23:35:40.052Z,96.90
2023-02-15T23:41:07.509Z,91.50
2023-02-15T23:46:24.219Z,108.90
2023-02-15T23:51:32.197Z,114.00
2023-02-15T23:56:38.454Z,101.90
